CWAE

Whistler  Airport

British Columbia, Canada

CWAE 191711Z 23002KT 4SM -SN OVC013 01/00 A2965 RMK SC8 WND ESTD SLP056

Observed Flight Rules
Nov-19 @ 17:11 UTC (48 minutes ago)
 
Marginal Visual Flight Rules
Wind Visibility Clouds Conditions
230° at 2 knots 4 miles
  • Overcast at 1,300' AGL
  • Light Snow
Temperatures Readings
Current 1°C / 34°F
Dewpoint 0°C / 32°F
Humidity 93%
Altimeter 29.65" Hg
Pressure 1005.6 hPa
Elevation 658
Observed Flight Rules
Nov-19 @ 17:11 UTC
(48 minutes ago)
 
MVFR
Wind Visibility
230° at 2 knots 4 miles
Clouds
  • Overcast at 1,300' AGL
Conditions
  • Light Snow
Temperature Dewpoint
1°C / 34°F 0°C / 32°F
Humidity Altimeter Pressure
93% 29.65" Hg 1005.6 hPa